Main page
METAR-TAF:

METAR-TAF

Airports :

Aeroparque Jorge Newbery

Buenos Aires, Argentina

latitude: 34-34S, longitude: 058-25W, elevation: 6 m

Current weather observation

The report was made 1 hour and 2 minutes ago, at 18:00 UTC
Wind 4 kt from the Northeast, varying between North and East/Southeast
Temperature 19°C
Humidity 64%
Pressure 1024 hPa
Visibility 10 km or more
no clouds below 1500 m and no cumulonimbus

METAR: SABE 161800Z 05004KT 350V110 CAVOK 19/12 Q1024 NOSIG

Time: 16:02 (19:02 UTC)

Forecast

The report was made 2 hours and 2 minutes ago, at 17:00 UTC
Forecast valid from 16 at 18 UTC to 17 at 18 UTC
Wind 10 kt from the North/Northeast
Visibility 10 km or more
no clouds below 1500 m and no cumulonimbus
Temporary
from 17 at 04 UTC to 17 at 09 UTC
Wind 15 kt from the North
Becoming
from 17 at 16 UTC to 17 at 18 UTC
Wind 5 kt from the East/Northeast

TAF: SABE 161700Z 1618/1718 03010KT CAVOK TX22/1718Z TN12/1710Z TEMPO 1704/1709 36015KT BECMG 1716/1718 06005KT

Weather observations and forecasts of more than 4000 airports (METAR and TAF reports).

The available stations are represented by yellow and red dots on the map.

Hover mouse over dot to see the name of the station.

Then click to see weather observations and forecasts.

To change the map : click on the green buttons with a black cross to zoom in, on the green button with a dash to zoom out, or on the green arrows for adjacent maps.


METAR-TAF: